createdAt,value
2022-07-29T00:00:08.171Z,98199.75
2022-07-29T00:01:19.449Z,98197.81
2022-07-29T00:02:21.365Z,98195.94
2022-07-29T00:03:22.981Z,98196.66
2022-07-29T00:04:24.605Z,98195.09
2022-07-29T00:05:26.263Z,98194.72
2022-07-29T00:06:27.765Z,98192.41
2022-07-29T00:07:29.290Z,98193.94
2022-07-29T00:08:30.800Z,98188.50
2022-07-29T00:09:32.841Z,98192.78
2022-07-29T00:10:43.978Z,98191.59
2022-07-29T00:11:45.559Z,98188.50
2022-07-29T00:12:47.256Z,98184.25
2022-07-29T00:13:50.981Z,98183.88
2022-07-29T00:14:55.266Z,98178.50
2022-07-29T00:15:56.843Z,98178.47
2022-07-29T00:17:06.089Z,98174.22
2022-07-29T00:18:07.608Z,98171.16
2022-07-29T00:19:09.175Z,98170.38
2022-07-29T00:20:12.529Z,98163.44
2022-07-29T00:21:14.125Z,98165.75
2022-07-29T00:22:15.764Z,98173.06
2022-07-29T00:23:17.282Z,98163.44
2022-07-29T00:24:19.228Z,98160.72
2022-07-29T00:25:20.834Z,98163.81
2022-07-29T00:26:22.408Z,98159.16
2022-07-29T00:27:24.012Z,98160.28
2022-07-29T00:28:25.571Z,98159.13
2022-07-29T00:29:35.009Z,98160.69
2022-07-29T00:30:36.755Z,98171.84
2022-07-29T00:31:38.352Z,98162.97
2022-07-29T00:32:40.223Z,98167.19
2022-07-29T00:33:41.671Z,98155.66
2022-07-29T00:34:43.168Z,98159.94
2022-07-29T00:35:44.712Z,98160.69
2022-07-29T00:36:46.230Z,98159.91
2022-07-29T00:37:47.722Z,98154.53
2022-07-29T00:38:50.654Z,98156.81
2022-07-29T00:39:52.289Z,98162.56
2022-07-29T00:40:53.831Z,98162.19
2022-07-29T00:41:55.481Z,98170.25
2022-07-29T00:42:57.117Z,98162.13
2022-07-29T00:43:58.639Z,98168.66
2022-07-29T00:45:00.235Z,98162.88
2022-07-29T00:46:01.997Z,98163.63
2022-07-29T00:47:03.676Z,98164.78
2022-07-29T00:48:05.771Z,98163.22
2022-07-29T00:49:07.777Z,98159.38
2022-07-29T00:50:11.313Z,98157.41
2022-07-29T00:51:13.228Z,98160.88
2022-07-29T00:52:16.946Z,98161.59
2022-07-29T00:53:20.336Z,98167.75
2022-07-29T00:54:21.864Z,98164.28
2022-07-29T00:55:23.560Z,98156.97
2022-07-29T00:56:25.134Z,98157.41
2022-07-29T00:57:26.777Z,98155.84
2022-07-29T00:58:28.469Z,98154.66
2022-07-29T00:59:34.551Z,98155.44
2022-07-29T01:00:36.952Z,98161.19
2022-07-29T01:01:38.498Z,98157.31
2022-07-29T01:02:40.214Z,98151.56
2022-07-29T01:03:41.710Z,98151.91
2022-07-29T01:04:43.277Z,98155.00
2022-07-29T01:05:50.788Z,98148.09
2022-07-29T01:06:55.408Z,98153.47
2022-07-29T01:07:58.402Z,98151.13
2022-07-29T01:09:00.679Z,98147.28
2022-07-29T01:10:07.272Z,98152.66
2022-07-29T01:11:09.429Z,98155.38
2022-07-29T01:12:11.730Z,98149.97
2022-07-29T01:13:15.704Z,98143.06
2022-07-29T01:14:17.992Z,98151.53
2022-07-29T01:15:20.026Z,98144.22
2022-07-29T01:16:33.568Z,98151.94
2022-07-29T01:17:52.430Z,98153.06
2022-07-29T01:19:02.271Z,98147.22
2022-07-29T01:20:12.712Z,98144.19
2022-07-29T01:21:23.262Z,98147.59
2022-07-29T01:22:37.048Z,98142.94
2022-07-29T01:24:03.163Z,98145.22
2022-07-29T01:25:10.613Z,98143.66
2022-07-29T01:26:24.084Z,98142.50
2022-07-29T01:27:46.158Z,98145.13
2022-07-29T01:28:54.845Z,98135.50
2022-07-29T01:29:59.086Z,98148.13
2022-07-29T01:31:03.992Z,98141.19
2022-07-29T01:32:27.853Z,98146.97
2022-07-29T01:33:39.266Z,98151.97
2022-07-29T01:35:01.634Z,98140.47
2022-07-29T01:37:24.845Z,98143.13
2022-07-29T01:38:29.030Z,98143.50
2022-07-29T01:39:39.523Z,98153.56
2022-07-29T01:40:48.727Z,98152.03
2022-07-29T01:42:02.800Z,98145.44
2022-07-29T01:43:11.137Z,98150.78
2022-07-29T01:44:18.515Z,98146.16
2022-07-29T01:45:31.469Z,98146.91
2022-07-29T01:46:36.669Z,98144.59
2022-07-29T01:47:44.294Z,98141.53
2022-07-29T01:48:55.990Z,98142.28
2022-07-29T01:50:00.648Z,98135.31
2022-07-29T01:51:24.971Z,98135.66
2022-07-29T01:52:40.686Z,98147.56
2022-07-29T01:54:07.658Z,98142.19
2022-07-29T01:55:15.107Z,98137.19
2022-07-29T01:56:19.493Z,98139.47
2022-07-29T01:57:25.998Z,98141.75
2022-07-29T01:58:29.460Z,98138.69
2022-07-29T01:59:32.224Z,98144.03
2022-07-29T02:00:35.388Z,98141.66
2022-07-29T02:01:38.526Z,98142.38
2022-07-29T02:02:43.278Z,98142.81
2022-07-29T02:03:46.951Z,98143.16
2022-07-29T02:04:51.344Z,98141.63
2022-07-29T02:05:54.112Z,98130.47
2022-07-29T02:06:59.594Z,98136.25
2022-07-29T02:08:03.051Z,98120.34
2022-07-29T02:09:08.502Z,98133.94
2022-07-29T02:10:12.946Z,98125.81
2022-07-29T02:11:14.881Z,98135.47
2022-07-29T02:12:19.225Z,98125.09
2022-07-29T02:13:24.298Z,98131.19
2022-07-29T02:14:29.505Z,98133.03
2022-07-29T02:15:34.775Z,98136.28
2022-07-29T02:16:39.589Z,98135.09
2022-07-29T02:17:54.939Z,98138.53
2022-07-29T02:18:58.540Z,98128.84
2022-07-29T02:20:04.105Z,98132.66
2022-07-29T02:21:06.385Z,98133.03
2022-07-29T02:22:19.302Z,98130.28
2022-07-29T02:23:23.595Z,98138.69
2022-07-29T02:24:27.283Z,98133.66
2022-07-29T02:25:36.743Z,98134.44
2022-07-29T02:26:42.334Z,98139.03
2022-07-29T02:27:45.293Z,98131.75
2022-07-29T02:28:47.894Z,98137.09
2022-07-29T02:29:51.131Z,98130.53
2022-07-29T02:30:56.379Z,98132.81
2022-07-29T02:31:59.848Z,98139.78
2022-07-29T02:33:02.560Z,98120.94
2022-07-29T02:34:07.985Z,98125.94
2022-07-29T02:35:10.982Z,98127.78
2022-07-29T02:36:12.676Z,98133.16
2022-07-29T02:37:17.348Z,98134.63
2022-07-29T02:38:20.994Z,98129.59
2022-07-29T02:39:25.291Z,98134.97
2022-07-29T02:40:26.959Z,98138.75
2022-07-29T02:41:38.176Z,98136.81
2022-07-29T02:42:43.182Z,98139.44
2022-07-29T02:43:47.749Z,98134.06
2022-07-29T02:44:49.774Z,98139.81
2022-07-29T02:45:53.937Z,98134.44
2022-07-29T02:47:05.350Z,98136.00
2022-07-29T02:48:13.607Z,98136.00
2022-07-29T02:49:39.252Z,98144.44
2022-07-29T02:50:51.019Z,98140.63
2022-07-29T02:51:57.378Z,98136.72
2022-07-29T02:53:03.248Z,98138.69
2022-07-29T02:54:08.667Z,98136.81
2022-07-29T02:55:24.014Z,98136.81
2022-07-29T02:56:28.997Z,98133.66
2022-07-29T02:57:54.069Z,98133.97
2022-07-29T02:59:03.946Z,98140.50
2022-07-29T03:00:08.658Z,98136.97
2022-07-29T03:01:20.977Z,98127.34
2022-07-29T03:02:24.725Z,98133.03
2022-07-29T03:03:30.797Z,98141.19
2022-07-29T03:04:34.528Z,98141.06
2022-07-29T03:05:36.165Z,98135.31
2022-07-29T03:06:39.570Z,98135.69
2022-07-29T03:07:42.990Z,98137.94
2022-07-29T03:08:46.018Z,98138.72
2022-07-29T03:09:48.080Z,98140.28
2022-07-29T03:10:50.141Z,98138.75
2022-07-29T03:11:52.071Z,98134.16
2022-07-29T03:12:54.974Z,98141.06
2022-07-29T03:13:56.950Z,98145.69
2022-07-29T03:15:00.203Z,98137.22
2022-07-29T03:16:02.505Z,98137.63
2022-07-29T03:17:04.583Z,98148.78
2022-07-29T03:18:07.379Z,98142.22
2022-07-29T03:19:09.044Z,98145.34
2022-07-29T03:20:12.363Z,98143.75
2022-07-29T03:21:14.045Z,98141.50
2022-07-29T03:22:15.915Z,98145.72
2022-07-29T03:23:21.735Z,98143.09
2022-07-29T03:24:27.940Z,98141.13
2022-07-29T03:25:29.553Z,98141.19
2022-07-29T03:26:31.210Z,98142.34
2022-07-29T03:27:32.747Z,98148.09
2022-07-29T03:28:34.276Z,98143.56
2022-07-29T03:29:35.793Z,98137.03
2022-07-29T03:30:37.414Z,98139.31
2022-07-29T03:31:40.385Z,98140.03
2022-07-29T03:32:45.321Z,98140.00
2022-07-29T03:33:47.358Z,98136.91
2022-07-29T03:34:48.886Z,98135.38
2022-07-29T03:35:50.398Z,98130.84
2022-07-29T03:36:51.952Z,98136.63
2022-07-29T03:37:53.455Z,98136.66
2022-07-29T03:38:56.606Z,98134.78
2022-07-29T03:39:59.198Z,98136.72
2022-07-29T03:41:06.712Z,98139.81
2022-07-29T03:42:11.333Z,98141.38
2022-07-29T03:43:15.746Z,98141.75
2022-07-29T03:44:20.510Z,98147.56
2022-07-29T03:45:23.826Z,98144.88
2022-07-29T03:46:29.543Z,98149.94
2022-07-29T03:47:49.653Z,98144.22
2022-07-29T03:48:59.475Z,98146.59
2022-07-29T03:50:05.933Z,98146.59
2022-07-29T03:51:12.212Z,98150.50
2022-07-29T03:52:14.276Z,98146.31
2022-07-29T03:53:16.797Z,98149.78
2022-07-29T03:54:18.889Z,98142.16
2022-07-29T03:55:21.140Z,98144.47
2022-07-29T03:56:23.830Z,98138.38
2022-07-29T03:57:29.237Z,98139.19
2022-07-29T03:58:31.637Z,98142.25
2022-07-29T03:59:34.427Z,98139.19
2022-07-29T04:00:37.471Z,98141.97
2022-07-29T04:01:39.860Z,98145.84
2022-07-29T04:02:41.639Z,98145.50
2022-07-29T04:03:43.298Z,98148.19
2022-07-29T04:04:44.903Z,98146.72
2022-07-29T04:05:58.097Z,98142.50
2022-07-29T04:06:59.650Z,98142.97
2022-07-29T04:08:01.254Z,98135.28
2022-07-29T04:09:02.869Z,98130.28
2022-07-29T04:10:04.727Z,98141.81
2022-07-29T04:11:06.890Z,98143.78
2022-07-29T04:12:08.811Z,98141.50
2022-07-29T04:13:10.294Z,98135.78
2022-07-29T04:14:11.847Z,98143.44
2022-07-29T04:15:13.395Z,98137.00
2022-07-29T04:16:15.031Z,98147.84
2022-07-29T04:17:16.622Z,98145.88
2022-07-29T04:18:18.156Z,98143.19
2022-07-29T04:19:19.720Z,98140.13
2022-07-29T04:20:21.220Z,98135.13
2022-07-29T04:21:23.003Z,98140.50
2022-07-29T04:22:24.528Z,98144.28
2022-07-29T04:23:26.653Z,98142.28
2022-07-29T04:24:28.606Z,98151.50
2022-07-29T04:25:30.124Z,98145.31
2022-07-29T04:26:31.713Z,98149.16
2022-07-29T04:27:33.197Z,98149.53
2022-07-29T04:29:36.321Z,98151.84
2022-07-29T04:30:57.654Z,98148.38
2022-07-29T04:31:59.288Z,98153.00
2022-07-29T04:33:05.630Z,98146.84
2022-07-29T04:34:07.667Z,98151.06
2022-07-29T04:35:09.295Z,98148.00
2022-07-29T04:36:28.413Z,98155.34
2022-07-29T04:37:31.181Z,98151.50
2022-07-29T04:38:32.817Z,98158.06
2022-07-29T04:39:34.369Z,98155.00
2022-07-29T04:40:35.838Z,98152.72
2022-07-29T04:41:40.352Z,98151.22
2022-07-29T04:42:46.812Z,98147.75
2022-07-29T04:43:49.733Z,98144.69
2022-07-29T04:44:51.406Z,98151.25
2022-07-29T04:45:53.464Z,98155.88
2022-07-29T04:46:54.976Z,98153.94
2022-07-29T04:47:56.795Z,98147.84
2022-07-29T04:48:58.341Z,98151.72
2022-07-29T04:49:59.940Z,98152.16
2022-07-29T04:51:01.431Z,98152.19
2022-07-29T04:52:03.028Z,98158.03
2022-07-29T04:53:04.538Z,98153.91
2022-07-29T04:54:06.140Z,98154.53
2022-07-29T04:55:08.071Z,98155.44
2022-07-29T04:56:09.743Z,98155.13
2022-07-29T04:57:11.254Z,98153.25
2022-07-29T04:58:12.839Z,98156.81
2022-07-29T04:59:14.381Z,98154.91
2022-07-29T05:00:16.032Z,98149.94
2022-07-29T05:01:17.679Z,98146.41
2022-07-29T05:02:19.458Z,98140.91
2022-07-29T05:03:21.322Z,98140.03
2022-07-29T05:04:22.901Z,98140.75
2022-07-29T05:05:24.459Z,98143.06
2022-07-29T05:06:25.994Z,98149.59
2022-07-29T05:07:27.634Z,98143.59
2022-07-29T05:08:29.125Z,98148.84
2022-07-29T05:09:30.708Z,98144.56
2022-07-29T05:10:32.289Z,98151.50
2022-07-29T05:11:33.886Z,98146.56
2022-07-29T05:12:35.761Z,98147.69
2022-07-29T05:13:45.853Z,98149.63
2022-07-29T05:14:48.675Z,98156.88
2022-07-29T05:15:50.639Z,98154.06
2022-07-29T05:16:52.201Z,98153.22
2022-07-29T05:17:53.675Z,98154.22
2022-07-29T05:18:55.168Z,98148.84
2022-07-29T05:19:56.682Z,98153.66
2022-07-29T05:20:58.268Z,98150.84
2022-07-29T05:21:59.783Z,98153.63
2022-07-29T05:23:02.887Z,98164.00
2022-07-29T05:24:04.781Z,98160.00
2022-07-29T05:25:09.155Z,98159.44
2022-07-29T05:26:10.966Z,98161.06
2022-07-29T05:27:12.441Z,98160.06
2022-07-29T05:28:14.044Z,98160.22
2022-07-29T05:29:45.019Z,98155.34
2022-07-29T05:30:37.775Z,98155.97
2022-07-29T05:31:39.746Z,98151.50
2022-07-29T05:32:41.661Z,98159.47
2022-07-29T05:33:43.365Z,98155.97
2022-07-29T05:34:50.748Z,98154.28
2022-07-29T05:35:56.206Z,98154.44
2022-07-29T05:37:00.135Z,98157.59
2022-07-29T05:38:01.884Z,98156.50
2022-07-29T05:39:03.609Z,98152.72
2022-07-29T05:40:06.182Z,98165.59
2022-07-29T05:41:07.716Z,98156.88
2022-07-29T05:42:10.592Z,98153.06
2022-07-29T05:43:12.049Z,98158.13
2022-07-29T05:44:13.834Z,98155.09
2022-07-29T05:45:15.554Z,98162.19
2022-07-29T05:46:17.157Z,98159.44
2022-07-29T05:47:18.840Z,98157.03
2022-07-29T05:48:20.394Z,98159.22
2022-07-29T05:49:27.030Z,98162.31
2022-07-29T05:50:29.102Z,98164.75
2022-07-29T05:51:30.587Z,98163.94
2022-07-29T05:52:32.119Z,98170.84
2022-07-29T05:53:33.590Z,98164.50
2022-07-29T05:54:35.590Z,98171.44
2022-07-29T05:55:37.237Z,98169.50
2022-07-29T05:56:40.931Z,98181.53
2022-07-29T05:57:42.503Z,98170.22
2022-07-29T05:58:44.116Z,98174.28
2022-07-29T05:59:46.251Z,98175.69
2022-07-29T06:00:48.070Z,98171.97
2022-07-29T06:01:52.288Z,98172.97
2022-07-29T06:02:54.644Z,98177.72
2022-07-29T06:03:56.601Z,98175.88
2022-07-29T06:04:58.364Z,98184.94
2022-07-29T06:05:59.928Z,98175.22
2022-07-29T06:07:01.605Z,98179.50
2022-07-29T06:08:03.550Z,98175.47
2022-07-29T06:09:12.117Z,98181.38
2022-07-29T06:10:14.608Z,98179.97
2022-07-29T06:11:16.138Z,98189.72
2022-07-29T06:12:17.694Z,98186.78
2022-07-29T06:13:19.278Z,98186.06
2022-07-29T06:14:20.781Z,98182.66
2022-07-29T06:15:22.371Z,98185.03
2022-07-29T06:16:30.170Z,98186.88
2022-07-29T06:17:32.217Z,98186.75
2022-07-29T06:18:33.759Z,98186.88
2022-07-29T06:19:35.971Z,98191.69
2022-07-29T06:20:37.784Z,98192.69
2022-07-29T06:21:46.473Z,98187.50
2022-07-29T06:22:48.027Z,98194.63
2022-07-29T06:23:49.663Z,98194.00
2022-07-29T06:24:51.184Z,98195.56
2022-07-29T06:25:52.826Z,98195.63
2022-07-29T06:26:54.442Z,98193.97
2022-07-29T06:27:56.073Z,98188.72
2022-07-29T06:28:57.572Z,98198.63
2022-07-29T06:29:59.155Z,98195.63
2022-07-29T06:31:01.095Z,98184.38
2022-07-29T06:32:02.764Z,98193.34
2022-07-29T06:33:04.601Z,98193.63
2022-07-29T06:34:06.343Z,98195.06
2022-07-29T06:35:37.861Z,98199.09
2022-07-29T06:36:31.071Z,98196.53
2022-07-29T06:37:32.695Z,98205.94
2022-07-29T06:38:42.020Z,98205.53
2022-07-29T06:39:43.655Z,98202.88
2022-07-29T06:40:46.200Z,98212.63
2022-07-29T06:41:48.673Z,98205.44
2022-07-29T06:42:50.278Z,98212.19
2022-07-29T06:43:54.517Z,98207.44
2022-07-29T06:44:57.980Z,98213.00
2022-07-29T06:46:00.965Z,98207.44
2022-07-29T06:47:03.350Z,98209.38
2022-07-29T06:48:05.399Z,98213.00
2022-07-29T06:49:06.934Z,98216.84
2022-07-29T06:50:09.027Z,98211.72
2022-07-29T06:51:14.597Z,98206.19
2022-07-29T06:52:16.136Z,98209.38
2022-07-29T06:53:17.649Z,98211.59
2022-07-29T06:54:19.417Z,98208.44
2022-07-29T06:55:24.633Z,98216.69
2022-07-29T06:56:27.077Z,98216.44
2022-07-29T06:57:28.600Z,98219.66
2022-07-29T06:58:30.825Z,98211.63
2022-07-29T06:59:35.733Z,98217.06
2022-07-29T07:00:38.037Z,98214.19
2022-07-29T07:01:42.325Z,98219.44
2022-07-29T07:02:44.134Z,98214.13
2022-07-29T07:03:45.774Z,98214.66
2022-07-29T07:04:47.257Z,98212.63
2022-07-29T07:05:52.530Z,98216.97
2022-07-29T07:06:54.478Z,98220.88
2022-07-29T07:07:56.140Z,98210.91
2022-07-29T07:08:57.741Z,98215.50
2022-07-29T07:09:59.385Z,98214.72
2022-07-29T07:11:01.105Z,98212.28
2022-07-29T07:12:02.785Z,98212.72
2022-07-29T07:13:05.546Z,98213.88
2022-07-29T07:14:07.473Z,98219.97
2022-07-29T07:15:09.361Z,98215.56
2022-07-29T07:16:10.964Z,98217.72
2022-07-29T07:17:12.515Z,98215.88
2022-07-29T07:18:14.327Z,98214.63
2022-07-29T07:19:15.837Z,98220.72
2022-07-29T07:20:18.091Z,98213.66
2022-07-29T07:21:19.764Z,98219.63
2022-07-29T07:22:21.341Z,98218.28
2022-07-29T07:23:22.863Z,98219.22
2022-07-29T07:24:24.578Z,98213.13
2022-07-29T07:25:26.367Z,98216.19
2022-07-29T07:26:28.215Z,98216.47
2022-07-29T07:27:29.857Z,98217.38
2022-07-29T07:28:31.491Z,98214.03
2022-07-29T07:29:33.589Z,98212.94
2022-07-29T07:30:35.207Z,98216.09
2022-07-29T07:31:37.855Z,98225.06
2022-07-29T07:32:39.604Z,98219.97
2022-07-29T07:33:41.131Z,98229.31
2022-07-29T07:34:43.766Z,98233.97
2022-07-29T07:35:45.297Z,98226.88
2022-07-29T07:36:46.842Z,98222.91
2022-07-29T07:37:48.375Z,98229.19
2022-07-29T07:38:50.047Z,98232.47
2022-07-29T07:39:52.655Z,98232.16
2022-07-29T07:40:54.256Z,98233.47
2022-07-29T07:41:55.848Z,98232.16
2022-07-29T07:42:57.408Z,98224.78
2022-07-29T07:43:59.012Z,98229.38
2022-07-29T07:45:16.204Z,98227.31
2022-07-29T07:46:18.332Z,98225.56
2022-07-29T07:47:20.772Z,98223.78
2022-07-29T07:48:23.807Z,98223.22
2022-07-29T07:49:25.443Z,98232.72
2022-07-29T07:50:27.141Z,98226.13
2022-07-29T07:51:29.069Z,98218.25
2022-07-29T07:52:30.831Z,98232.38
2022-07-29T07:53:32.643Z,98226.66
2022-07-29T07:54:34.188Z,98231.88
2022-07-29T07:56:07.972Z,98227.81
2022-07-29T07:57:02.842Z,98229.91
2022-07-29T07:58:04.377Z,98226.66
2022-07-29T07:59:05.887Z,98228.91
2022-07-29T08:00:07.974Z,98229.63
2022-07-29T08:01:13.745Z,98229.50
2022-07-29T08:02:15.529Z,98229.38
2022-07-29T08:03:17.518Z,98238.72
2022-07-29T08:04:23.486Z,98231.56
2022-07-29T08:05:28.480Z,98231.75
2022-07-29T08:06:30.038Z,98225.28
2022-07-29T08:07:34.132Z,98231.13
2022-07-29T08:08:35.734Z,98233.75
2022-07-29T08:09:37.271Z,98233.44
2022-07-29T08:10:38.959Z,98233.97
2022-07-29T08:11:40.454Z,98235.28
2022-07-29T08:12:53.841Z,98235.41
2022-07-29T08:13:55.652Z,98231.47
2022-07-29T08:14:57.201Z,98230.50
2022-07-29T08:15:59.822Z,98228.41
2022-07-29T08:17:01.552Z,98233.56
2022-07-29T08:18:08.426Z,98233.06
2022-07-29T08:19:10.962Z,98230.19
2022-07-29T08:20:12.513Z,98229.31
2022-07-29T08:21:16.892Z,98226.03
2022-07-29T08:22:18.478Z,98232.16
2022-07-29T08:23:20.322Z,98232.16
2022-07-29T08:24:22.983Z,98230.97
2022-07-29T08:25:24.536Z,98231.41
2022-07-29T08:26:26.140Z,98235.66
2022-07-29T08:27:42.863Z,98240.25
2022-07-29T08:28:46.173Z,98233.44
2022-07-29T08:29:47.880Z,98238.16
2022-07-29T08:30:49.360Z,98235.06
2022-07-29T08:31:51.392Z,98240.63
2022-07-29T08:32:54.793Z,98232.78
2022-07-29T08:33:57.256Z,98224.41
2022-07-29T08:34:58.963Z,98238.56
2022-07-29T08:36:00.484Z,98237.88
2022-07-29T08:37:02.129Z,98235.13
2022-07-29T08:38:03.896Z,98229.75
2022-07-29T08:39:06.205Z,98225.31
2022-07-29T08:40:08.090Z,98225.97
2022-07-29T08:41:09.641Z,98234.97
2022-07-29T08:42:12.156Z,98230.72
2022-07-29T08:43:14.072Z,98231.34
2022-07-29T08:44:22.331Z,98236.19
2022-07-29T08:45:44.307Z,98233.53
2022-07-29T08:46:50.548Z,98231.84
2022-07-29T08:47:53.262Z,98229.19
2022-07-29T08:48:56.264Z,98230.56
2022-07-29T08:49:57.818Z,98226.56
2022-07-29T08:51:00.093Z,98229.72
2022-07-29T08:52:01.754Z,98229.47
2022-07-29T08:53:04.406Z,98226.50
2022-07-29T08:54:06.406Z,98232.72
2022-07-29T08:55:10.299Z,98234.13
2022-07-29T08:56:16.227Z,98229.34
2022-07-29T08:57:19.181Z,98230.06
2022-07-29T08:58:23.222Z,98225.63
2022-07-29T08:59:28.514Z,98232.66
2022-07-29T09:00:32.906Z,98226.53
2022-07-29T09:01:45.119Z,98223.66
2022-07-29T09:02:51.131Z,98220.50
2022-07-29T09:03:56.410Z,98229.66
2022-07-29T09:05:01.296Z,98223.19
2022-07-29T09:06:04.246Z,98226.78
2022-07-29T09:07:07.132Z,98220.38
2022-07-29T09:08:09.118Z,98232.47
2022-07-29T09:09:10.769Z,98224.03
2022-07-29T09:10:12.374Z,98237.25
2022-07-29T09:11:15.131Z,98225.97
2022-07-29T09:12:28.882Z,98234.22
2022-07-29T09:13:31.583Z,98233.94
2022-07-29T09:14:33.282Z,98236.91
2022-07-29T09:15:34.978Z,98235.31
2022-07-29T09:17:06.731Z,98233.75
2022-07-29T09:18:20.434Z,98230.50
2022-07-29T09:19:31.390Z,98228.66
2022-07-29T09:20:33.009Z,98234.25
2022-07-29T09:21:41.712Z,98229.91
2022-07-29T09:22:46.214Z,98242.94
2022-07-29T09:24:13.354Z,98229.91
2022-07-29T09:25:15.073Z,98231.44
2022-07-29T09:26:16.725Z,98226.13
2022-07-29T09:27:18.153Z,98235.75
2022-07-29T09:28:19.764Z,98231.22
2022-07-29T09:29:24.425Z,98232.81
2022-07-29T09:30:31.419Z,98234.34
2022-07-29T09:31:36.488Z,98235.28
2022-07-29T09:33:13.436Z,98232.72
2022-07-29T09:34:17.599Z,98231.22
2022-07-29T09:35:24.568Z,98229.41
2022-07-29T09:36:26.139Z,98233.84
2022-07-29T09:37:30.377Z,98239.63
2022-07-29T09:38:32.512Z,98237.84
2022-07-29T09:39:39.887Z,98227.78
2022-07-29T09:40:41.366Z,98231.53
2022-07-29T09:41:51.034Z,98227.09
2022-07-29T09:42:53.009Z,98229.91
2022-07-29T09:43:56.562Z,98235.94
2022-07-29T09:44:58.123Z,98223.75
2022-07-29T09:46:18.227Z,98222.78
2022-07-29T09:47:20.363Z,98217.72
2022-07-29T09:48:24.718Z,98219.22
2022-07-29T09:49:26.839Z,98215.97
2022-07-29T09:50:42.004Z,98218.84
2022-07-29T09:51:43.557Z,98210.88
2022-07-29T09:52:50.318Z,98215.19
2022-07-29T09:53:53.093Z,98221.31
2022-07-29T09:55:09.404Z,98218.25
2022-07-29T09:56:11.284Z,98218.53
2022-07-29T09:57:31.034Z,98214.97
2022-07-29T09:58:33.331Z,98217.59
2022-07-29T09:59:34.873Z,98218.25
2022-07-29T10:00:43.394Z,98220.25
2022-07-29T10:01:44.947Z,98223.66
2022-07-29T10:02:47.878Z,98217.91
2022-07-29T10:03:53.528Z,98211.38
2022-07-29T10:04:55.290Z,98214.66
2022-07-29T10:06:12.352Z,98214.75
2022-07-29T10:07:14.031Z,98214.84
2022-07-29T10:08:26.336Z,98220.41
2022-07-29T10:09:28.438Z,98223.50
2022-07-29T10:10:35.267Z,98214.84
2022-07-29T10:11:49.349Z,98219.03
2022-07-29T10:12:57.094Z,98219.09
2022-07-29T10:14:03.321Z,98217.38
2022-07-29T10:15:05.439Z,98216.91
2022-07-29T10:16:07.216Z,98219.16
2022-07-29T10:17:11.750Z,98213.91
2022-07-29T10:18:15.174Z,98214.53
2022-07-29T10:19:17.933Z,98217.66
2022-07-29T10:20:20.775Z,98207.75
2022-07-29T10:21:35.990Z,98213.47
2022-07-29T10:22:54.215Z,98211.94
2022-07-29T10:24:00.949Z,98214.78
2022-07-29T10:25:03.998Z,98209.56
2022-07-29T10:26:05.670Z,98207.50
2022-07-29T10:27:09.193Z,98210.38
2022-07-29T10:28:15.807Z,98214.47
2022-07-29T10:29:17.935Z,98212.25
2022-07-29T10:30:21.044Z,98209.84
2022-07-29T10:31:30.789Z,98212.38
2022-07-29T10:32:54.368Z,98206.09
2022-07-29T10:34:11.050Z,98210.84
2022-07-29T10:35:39.834Z,98210.94
2022-07-29T10:36:59.909Z,98206.03
2022-07-29T10:38:26.968Z,98202.69
2022-07-29T10:39:49.695Z,98209.84
2022-07-29T10:41:03.323Z,98205.84
2022-07-29T10:42:19.885Z,98205.94
2022-07-29T10:43:28.134Z,98203.47
2022-07-29T10:44:31.967Z,98199.41
2022-07-29T10:45:33.583Z,98195.16
2022-07-29T10:46:37.245Z,98198.47
2022-07-29T10:47:38.963Z,98199.59
2022-07-29T10:49:15.242Z,98182.81
2022-07-29T10:50:17.528Z,98190.56
2022-07-29T10:51:19.228Z,98194.75
2022-07-29T10:52:20.912Z,98191.16
2022-07-29T10:53:51.647Z,98195.78
2022-07-29T10:54:53.354Z,98187.91
2022-07-29T10:55:56.003Z,98193.28
2022-07-29T10:57:18.727Z,98187.84
2022-07-29T10:58:24.132Z,98193.28
2022-07-29T10:59:25.746Z,98197.78
2022-07-29T11:00:33.839Z,98190.41
2022-07-29T11:01:37.247Z,98191.56
2022-07-29T11:02:40.948Z,98190.06
2022-07-29T11:03:49.641Z,98189.19
2022-07-29T11:04:52.379Z,98190.66
2022-07-29T11:05:56.498Z,98189.38
2022-07-29T11:07:06.879Z,98189.13
2022-07-29T11:08:19.550Z,98190.16
2022-07-29T11:09:25.681Z,98193.53
2022-07-29T11:10:36.680Z,98189.88
2022-07-29T11:11:40.466Z,98187.91
2022-07-29T11:12:45.674Z,98190.63
2022-07-29T11:13:53.181Z,98194.03
2022-07-29T11:14:54.866Z,98189.78
2022-07-29T11:15:58.699Z,98186.22
2022-07-29T11:17:05.931Z,98186.47
2022-07-29T11:18:15.032Z,98194.50
2022-07-29T11:19:29.976Z,98189.88
2022-07-29T11:20:34.742Z,98186.38
2022-07-29T11:21:54.322Z,98187.69
2022-07-29T11:23:17.831Z,98180.50
2022-07-29T11:24:28.887Z,98186.03
2022-07-29T11:25:42.914Z,98189.28
2022-07-29T11:27:14.322Z,98183.59
2022-07-29T11:28:23.210Z,98193.22
2022-07-29T11:29:27.462Z,98186.13
2022-07-29T11:30:52.815Z,98194.41
2022-07-29T11:32:09.750Z,98191.31
2022-07-29T11:33:54.316Z,98196.53
2022-07-29T11:37:07.844Z,98203.94
2022-07-29T11:38:31.626Z,98211.75
2022-07-29T11:39:37.220Z,98211.91
2022-07-29T11:40:39.286Z,98211.13
2022-07-29T11:41:44.164Z,98209.44
2022-07-29T11:42:47.037Z,98208.25
2022-07-29T11:43:59.921Z,98208.31
2022-07-29T11:45:41.537Z,98200.56
2022-07-29T11:46:50.766Z,98199.09
2022-07-29T11:47:54.798Z,98197.19
2022-07-29T11:48:57.060Z,98192.47
2022-07-29T11:50:00.532Z,98192.56
2022-07-29T11:51:11.572Z,98186.00
2022-07-29T11:52:15.064Z,98181.66
2022-07-29T11:53:16.554Z,98179.88
2022-07-29T11:54:27.866Z,98178.25
2022-07-29T11:55:32.623Z,98176.69
2022-07-29T11:56:39.906Z,98176.06
2022-07-29T11:58:04.050Z,98176.50
2022-07-29T11:59:08.391Z,98175.19
2022-07-29T12:00:12.726Z,98181.19
2022-07-29T12:01:18.547Z,98177.31
2022-07-29T12:02:37.520Z,98180.75
2022-07-29T12:03:39.796Z,98185.56
2022-07-29T12:06:18.070Z,98183.28
2022-07-29T12:07:03.199Z,98186.03
2022-07-29T12:07:03.649Z,98197.72
2022-07-29T12:07:35.173Z,98187.53
2022-07-29T12:08:42.599Z,98188.75
2022-07-29T12:09:51.267Z,98185.50
2022-07-29T12:10:53.741Z,98184.06
2022-07-29T12:12:04.770Z,98183.06
2022-07-29T12:13:07.565Z,98184.59
2022-07-29T12:14:25.734Z,98181.28
2022-07-29T12:15:45.586Z,98184.97
2022-07-29T12:16:48.576Z,98190.00
2022-07-29T12:17:50.366Z,98190.31
2022-07-29T12:19:02.433Z,98189.72
2022-07-29T12:20:05.595Z,98182.75
2022-07-29T12:21:07.125Z,98190.34
2022-07-29T12:22:08.697Z,98188.19
2022-07-29T12:23:11.038Z,98177.59
2022-07-29T12:24:15.060Z,98187.75
2022-07-29T12:25:32.800Z,98181.22
2022-07-29T12:26:35.756Z,98183.81
2022-07-29T12:27:40.533Z,98182.25
2022-07-29T12:28:42.304Z,98181.50
2022-07-29T12:30:03.893Z,98185.75
2022-07-29T12:31:05.761Z,98186.91
2022-07-29T12:32:14.580Z,98187.28
2022-07-29T12:33:25.209Z,98185.41
2022-07-29T12:34:29.513Z,98186.03
2022-07-29T12:35:31.268Z,98189.97
2022-07-29T12:36:33.411Z,98183.00
2022-07-29T12:37:40.945Z,98184.09
2022-07-29T12:38:44.277Z,98182.56
2022-07-29T12:39:46.050Z,98186.72
2022-07-29T12:40:49.027Z,98185.09
2022-07-29T12:41:50.578Z,98179.13
2022-07-29T12:43:07.409Z,98185.28
2022-07-29T12:44:08.915Z,98184.75
2022-07-29T12:45:10.716Z,98190.56
2022-07-29T12:46:14.338Z,98192.31
2022-07-29T12:47:16.911Z,98193.09
2022-07-29T12:48:36.233Z,98193.75